Time,TemperatureF,DewpointF,PressureIn,WindDirection,WindDirectionDegrees,WindSpeedMPH,WindSpeedGustMPH,Humidity,HourlyPrecipIn,Conditions,Clouds,dailyrainin,SolarRadiationWatts/m^2,SoftwareType,DateUTC
2013-07-19 01:43:00,70.0,67.0,-100.00,North,355,17.0,33.0,91,0.01,,,0.85,0.000000,,2013-07-19 05:43:00,
2013-07-19 01:53:00,70.0,67.0,-100.00,North,355,17.0,33.0,91,0.01,,,0.85,0.000000,,2013-07-19 05:53:00,
2013-07-19 02:01:00,70.0,67.0,-100.00,North,355,17.0,33.0,91,0.01,,,0.85,0.000000,,2013-07-19 06:01:00,
2013-07-19 02:22:00,65.0,64.0,-100.00,NW,319,3.0,23.0,97,0.23,,,1.08,0.000000,,2013-07-19 06:22:00,
2013-07-19 02:33:00,65.0,64.0,-100.00,NW,319,3.0,23.0,97,0.23,,,1.08,0.000000,,2013-07-19 06:33:00,
2013-07-19 02:43:00,65.0,64.0,-100.00,NW,319,3.0,23.0,97,0.23,,,1.08,0.000000,,2013-07-19 06:43:00,
2013-07-19 02:53:00,65.0,64.0,-100.00,NW,319,3.0,23.0,97,0.23,,,1.08,0.000000,,2013-07-19 06:53:00,
2013-07-19 03:01:00,65.0,64.0,-100.00,NW,319,3.0,23.0,97,0.23,,,1.08,0.000000,,2013-07-19 07:01:00,
2013-07-19 03:33:00,65.0,64.0,-100.00,SSW,196,4.0,7.0,98,0.25,,,1.33,0.000000,,2013-07-19 07:33:00,
2013-07-19 03:43:00,65.0,64.0,-100.00,SSW,196,4.0,7.0,98,0.25,,,1.33,0.000000,,2013-07-19 07:43:00,
2013-07-19 03:53:00,65.0,64.0,-100.00,SSW,196,4.0,7.0,98,0.25,,,1.33,0.000000,,2013-07-19 07:53:00,
2013-07-19 04:01:00,65.0,64.0,-100.00,SSW,196,4.0,7.0,98,0.25,,,1.33,0.000000,,2013-07-19 08:01:00,
2013-07-19 04:22:00,65.0,64.0,-100.00,South,174,6.0,11.0,98,0.10,,,-99.99,0.000000,,2013-07-19 08:22:00,
2013-07-19 04:33:00,65.0,64.0,-100.00,South,174,6.0,11.0,98,0.10,,,-99.99,0.000000,,2013-07-19 08:33:00,
2013-07-19 04:43:00,65.0,64.0,-100.00,South,174,6.0,11.0,98,0.10,,,-99.99,0.000000,,2013-07-19 08:43:00,
2013-07-19 04:52:00,65.0,64.0,-100.00,South,174,6.0,11.0,98,0.10,,,-99.99,0.000000,,2013-07-19 08:52:00,
2013-07-19 05:02:00,65.0,64.0,-100.00,South,174,6.0,11.0,98,0.10,,,-99.99,0.000000,,2013-07-19 09:02:00,
2013-07-19 05:32:00,65.0,64.0,-100.00,SSW,195,8.0,13.0,98,0.00,,,-99.99,0.000000,,2013-07-19 09:32:00,
2013-07-19 05:43:00,65.0,64.0,-100.00,SSW,195,8.0,13.0,98,0.00,,,-99.99,0.000000,,2013-07-19 09:43:00,
2013-07-19 05:52:00,65.0,64.0,-100.00,SSW,195,8.0,13.0,98,0.00,,,-99.99,0.000000,,2013-07-19 09:52:00,
2013-07-19 06:01:00,65.0,64.0,-100.00,SSW,195,8.0,13.0,98,0.00,,,-99.99,0.000000,,2013-07-19 10:01:00,
2013-07-19 06:43:00,66.0,65.0,-100.00,North,3,5.0,14.0,96,0.00,,,1.31,0.000000,,2013-07-19 10:43:00,
2013-07-19 06:52:00,66.0,65.0,-100.00,North,3,5.0,14.0,96,0.00,,,1.31,0.000000,,2013-07-19 10:52:00,
2013-07-19 07:02:00,66.0,65.0,-100.00,North,3,5.0,14.0,96,0.00,,,1.31,0.000000,,2013-07-19 11:02:00,
2013-07-19 07:33:00,66.0,65.0,-100.00,North,9,6.0,11.0,96,0.01,,,1.31,1.000000,,2013-07-19 11:33:00,
2013-07-19 07:43:00,66.0,65.0,-100.00,North,9,6.0,11.0,96,0.01,,,1.31,1.000000,,2013-07-19 11:43:00,
2013-07-19 07:52:00,66.0,65.0,-100.00,North,9,6.0,11.0,96,0.01,,,1.31,1.000000,,2013-07-19 11:52:00,
2013-07-19 08:01:00,66.0,65.0,-100.00,North,9,6.0,11.0,96,0.01,,,1.31,1.000000,,2013-07-19 12:01:00,
2013-07-19 08:33:00,65.0,64.0,-100.00,East,87,1.0,16.0,98,0.44,,,1.75,6.000000,,2013-07-19 12:33:00,
2013-07-19 09:32:00,66.0,65.0,-100.00,SSW,204,7.0,14.0,97,0.22,,,1.97,11.000000,,2013-07-19 13:32:00,
2013-07-19 09:53:00,66.0,65.0,-100.00,SSW,204,7.0,14.0,97,0.22,,,1.97,11.000000,,2013-07-19 13:53:00,
2013-07-19 10:02:00,66.0,65.0,-100.00,SSW,204,7.0,14.0,97,0.22,,,1.97,11.000000,,2013-07-19 14:02:00,
2013-07-19 11:43:00,73.0,69.0,-100.00,WSW,238,9.0,18.0,86,0.00,,,1.97,420.000000,,2013-07-19 15:43:00,
2013-07-19 11:52:00,73.0,69.0,-100.00,WSW,238,9.0,18.0,86,0.00,,,1.97,420.000000,,2013-07-19 15:52:00,
2013-07-19 12:01:00,73.0,69.0,-100.00,WSW,238,9.0,18.0,86,0.00,,,1.97,420.000000,,2013-07-19 16:01:00,
2013-07-19 15:32:00,77.0,66.0,-100.00,North,355,9.0,17.0,69,0.00,,,1.83,500.000000,,2013-07-19 19:32:00,
2013-07-19 15:43:00,77.0,66.0,-100.00,North,355,9.0,17.0,69,0.00,,,1.83,500.000000,,2013-07-19 19:43:00,
2013-07-19 15:52:00,77.0,66.0,-100.00,North,355,9.0,17.0,69,0.00,,,1.83,500.000000,,2013-07-19 19:52:00,
2013-07-19 16:01:00,77.0,66.0,-100.00,North,355,9.0,17.0,69,0.00,,,1.83,500.000000,,2013-07-19 20:01:00,
2013-07-19 18:43:00,74.0,56.0,-100.00,NNW,340,8.0,18.0,54,0.00,,,1.83,213.000000,,2013-07-19 22:43:00,
2013-07-19 18:52:00,74.0,56.0,-100.00,NNW,340,8.0,18.0,54,0.00,,,1.83,213.000000,,2013-07-19 22:52:00,
2013-07-19 19:01:00,74.0,56.0,-100.00,NNW,340,8.0,18.0,54,0.00,,,1.83,213.000000,,2013-07-19 23:01:00,
2013-07-19 21:01:00,71.0,56.0,-100.00,NNW,333,7.0,16.0,59,0.00,,,1.83,185.000000,,2013-07-20 01:01:00,
2013-07-19 22:33:00,64.0,58.0,-100.00,NW,308,1.0,5.0,80,-99.99,,,1.27,4.000000,,2013-07-20 02:33:00,
2013-07-19 22:44:00,64.0,58.0,-100.00,NW,308,1.0,5.0,80,-99.99,,,1.27,4.000000,,2013-07-20 02:44:00,
2013-07-19 22:52:00,64.0,58.0,-100.00,NW,308,1.0,5.0,80,-99.99,,,1.27,4.000000,,2013-07-20 02:52:00,
2013-07-19 23:02:00,64.0,58.0,-100.00,NW,308,1.0,5.0,80,-99.99,,,1.27,4.000000,,2013-07-20 03:02:00,
2013-07-19 23:32:00,63.0,58.0,-100.00,WNW,286,3.0,6.0,85,0.00,,,1.26,0.000000,,2013-07-20 03:32:00,
2013-07-19 23:44:00,63.0,58.0,-100.00,WNW,286,3.0,6.0,85,0.00,,,1.26,0.000000,,2013-07-20 03:44:00,
2013-07-19 23:53:00,63.0,58.0,-100.00,WNW,286,3.0,6.0,85,0.00,,,1.26,0.000000,,2013-07-20 03:53:00,